Time;durP1;ratioP1;P1;durP2;ratioP2;P2;SDS_P1;SDS_P2;PMS_P1;PMS_P2;Temp;Humidity;BMP_temperature;BMP_pressure;BME280_temperature;BME280_humidity;BME280_pressure;Samples;Min_cycle;Max_cycle;Signal;HPM_P1;HPM_P2
2023/05/14 00:00:59;;;;;;;13.98;7.28;;;;;;;11.97;52.84;101208.69;1759253;81;21355;-57
2023/05/14 00:04:04;;;;;;;15.68;7.17;;;;;;;11.91;52.87;101212.59;1759170;81;21268;-58
2023/05/14 00:07:10;;;;;;;10.98;6.92;;;;;;;11.83;52.93;101203.83;1759371;81;21229;-58
2023/05/14 00:10:17;;;;;;;9.00;6.25;;;;;;;11.81;53.06;101215.47;1759153;81;21252;-57
2023/05/14 00:13:24;;;;;;;9.73;6.47;;;;;;;11.75;53.13;101212.52;1739288;80;21205;-58
2023/05/14 00:16:30;;;;;;;10.32;6.22;;;;;;;11.74;53.33;101209.44;1759492;81;21294;-59
2023/05/14 00:19:40;;;;;;;10.50;5.95;;;;;;;11.74;53.47;101218.53;1759529;81;21190;-59
2023/05/14 00:22:44;;;;;;;10.75;5.78;;;;;;;11.74;53.50;101214.92;1753669;81;21773;-59
2023/05/14 00:25:49;;;;;;;9.93;5.72;;;;;;;11.71;53.50;101213.37;1754299;81;21198;-59
2023/05/14 00:28:54;;;;;;;9.75;5.45;;;;;;;11.68;53.57;101203.23;1758866;81;21280;-58
2023/05/14 00:32:01;;;;;;;9.28;5.70;;;;;;;11.66;53.67;101210.76;1759088;80;21612;-60
2023/05/14 00:35:08;;;;;;;9.35;5.53;;;;;;;11.64;53.73;101210.92;1759612;81;21338;-58
2023/05/14 00:38:15;;;;;;;9.33;5.75;;;;;;;11.59;53.72;101201.45;1759493;81;21220;-58
2023/05/14 00:41:20;;;;;;;8.80;5.45;;;;;;;11.53;53.83;101202.06;1759384;81;21208;-58
2023/05/14 00:44:26;;;;;;;10.95;6.42;;;;;;;11.52;53.96;101194.88;1759853;81;21225;-58
2023/05/14 00:47:38;;;;;;;8.55;5.67;;;;;;;11.48;54.06;101204.47;1759239;81;21271;-58
2023/05/14 00:50:42;;;;;;;8.35;5.62;;;;;;;11.43;54.13;101201.34;1759470;81;21741;-57
2023/05/14 00:53:49;;;;;;;9.28;6.03;;;;;;;11.40;54.25;101198.39;1759486;81;21240;-58
2023/05/14 00:56:55;;;;;;;11.78;5.75;;;;;;;11.35;54.25;101204.02;1759131;81;21177;-59
2023/05/14 01:00:02;;;;;;;8.68;5.40;;;;;;;11.30;54.29;101206.38;1759321;81;21197;-59
2023/05/14 01:03:06;;;;;;;12.70;5.60;;;;;;;11.29;54.45;101207.41;1758636;81;21212;-59
2023/05/14 01:07:00;;;;;;;10.15;6.25;;;;;;;11.27;54.56;101207.58;1759376;81;21173;-57
2023/05/14 01:10:20;;;;;;;10.35;6.17;;;;;;;11.27;54.65;101206.70;1759373;81;21201;-58
2023/05/14 01:13:51;;;;;;;10.48;5.83;;;;;;;11.22;54.77;101201.71;1759396;81;21201;-58
2023/05/14 01:17:01;;;;;;;10.23;5.78;;;;;;;11.23;54.88;101206.66;1750970;81;21232;-58
2023/05/14 01:20:07;;;;;;;9.30;6.15;;;;;;;11.20;54.90;101202.87;1759372;81;21193;-58
2023/05/14 01:23:13;;;;;;;10.43;6.92;;;;;;;11.20;55.09;101195.52;1757298;81;21193;-59
2023/05/14 01:26:19;;;;;;;9.90;6.75;;;;;;;11.25;55.30;101200.52;1756386;81;21209;-59
2023/05/14 01:29:30;;;;;;;10.70;6.62;;;;;;;11.26;55.38;101198.98;1756791;81;21185;-59
2023/05/14 01:32:36;;;;;;;10.40;5.70;;;;;;;11.28;55.37;101208.41;1756384;81;21840;-59
2023/05/14 01:35:43;;;;;;;10.95;6.00;;;;;;;11.29;55.49;101205.52;1756454;81;21197;-58
2023/05/14 01:38:50;;;;;;;10.90;5.45;;;;;;;11.33;55.63;101198.70;1756737;81;21418;-58
2023/05/14 01:41:56;;;;;;;11.45;5.28;;;;;;;11.39;55.77;101202.16;1756867;81;21312;-59
2023/05/14 01:45:02;;;;;;;8.95;5.70;;;;;;;11.44;55.86;101204.42;1756843;81;21202;-58
2023/05/14 01:48:11;;;;;;;9.58;6.15;;;;;;;11.44;55.86;101208.53;1756139;81;21189;-59
2023/05/14 01:51:17;;;;;;;10.48;6.00;;;;;;;11.43;55.85;101207.66;1756886;81;21724;-58
2023/05/14 01:54:22;;;;;;;10.15;5.90;;;;;;;11.47;55.99;101204.09;1756901;81;21217;-58
2023/05/14 01:57:28;;;;;;;10.45;5.97;;;;;;;11.52;56.16;101198.98;1756558;81;21189;-58
2023/05/14 02:00:33;;;;;;;9.35;5.55;;;;;;;11.56;56.26;101201.77;1756812;81;21237;-59
2023/05/14 02:03:39;;;;;;;10.10;6.15;;;;;;;11.60;56.33;101199.91;1756383;81;21220;-58
2023/05/14 02:06:47;;;;;;;21.02;10.50;;;;;;;11.65;56.40;101202.20;1756556;81;21256;-58
2023/05/14 02:09:53;;;;;;;26.80;14.23;;;;;;;11.68;56.50;101198.62;1758120;81;21721;-58
2023/05/14 02:13:00;;;;;;;52.95;24.50;;;;;;;11.76;56.61;101199.17;1759172;81;21204;-58
2023/05/14 02:16:06;;;;;;;33.00;17.67;;;;;;;11.80;56.71;101193.69;1759293;80;21243;-58
2023/05/14 02:19:13;;;;;;;18.70;10.08;;;;;;;11.84;56.65;101202.79;1759554;81;21249;-58
2023/05/14 02:22:18;;;;;;;10.88;7.25;;;;;;;11.85;56.64;101205.03;1734554;81;21264;-58
2023/05/14 02:25:23;;;;;;;8.68;5.70;;;;;;;11.88;56.68;101201.95;1755346;81;21285;-57
2023/05/14 02:28:29;;;;;;;7.78;5.33;;;;;;;11.90;56.68;101204.03;1759412;81;21189;-58
2023/05/14 02:31:36;;;;;;;9.68;5.65;;;;;;;11.92;56.76;101197.34;1759394;81;21169;-58
2023/05/14 02:34:43;;;;;;;8.70;5.70;;;;;;;11.94;56.82;101201.29;1759356;81;21301;-58
2023/05/14 02:37:49;;;;;;;9.75;5.30;;;;;;;11.96;56.86;101203.37;1759370;81;21173;-58
2023/05/14 02:40:54;;;;;;;9.25;5.15;;;;;;;11.96;56.90;101203.37;1759419;81;21165;-59
2023/05/14 02:44:00;;;;;;;12.40;5.42;;;;;;;11.99;56.96;101196.17;1759768;81;21193;-58
2023/05/14 02:47:05;;;;;;;9.68;5.03;;;;;;;12.02;57.04;101203.58;1759424;81;21252;-58
2023/05/14 02:50:12;;;;;;;8.10;5.60;;;;;;;12.06;57.11;101199.99;1759539;81;21277;-58
2023/05/14 02:53:16;;;;;;;9.18;5.10;;;;;;;12.13;57.20;101212.02;1757856;81;21721;-58
2023/05/14 02:56:22;;;;;;;10.58;5.15;;;;;;;12.18;57.24;101207.42;1759419;81;21713;-58
2023/05/14 02:59:30;;;;;;;10.00;5.72;;;;;;;12.23;57.28;101207.25;1759341;81;21544;-58
2023/05/14 03:02:38;;;;;;;9.78;4.85;;;;;;;12.31;57.36;101204.53;1759239;81;21240;-58
2023/05/14 03:05:46;;;;;;;9.25;4.60;;;;;;;12.39;57.42;101196.33;1759262;81;21212;-58
2023/05/14 03:08:53;;;;;;;8.10;5.25;;;;;;;12.46;57.46;101200.13;1759324;81;21564;-58
2023/05/14 03:11:58;;;;;;;10.53;5.45;;;;;;;12.55;57.46;101205.98;1759385;81;21197;-59
2023/05/14 03:15:06;;;;;;;11.73;5.55;;;;;;;12.62;57.46;101202.88;1759344;81;21855;-58
2023/05/14 03:18:12;;;;;;;7.22;5.00;;;;;;;12.71;57.46;101206.52;1759202;80;21224;-58
2023/05/14 03:21:17;;;;;;;9.80;4.85;;;;;;;12.78;57.47;101201.53;1759276;81;21236;-57
2023/05/14 03:24:24;;;;;;;11.00;5.05;;;;;;;12.85;57.51;101203.97;1758966;78;21205;-57
2023/05/14 03:27:29;;;;;;;7.60;4.85;;;;;;;12.92;57.55;101204.98;1695173;84;21706;-58
2023/05/14 03:30:36;;;;;;;10.35;5.37;;;;;;;12.99;57.60;101212.90;1694547;84;21269;-58
2023/05/14 03:33:43;;;;;;;12.85;4.92;;;;;;;13.07;57.66;101207.94;1679098;84;21308;-58
2023/05/14 03:36:49;;;;;;;9.60;5.28;;;;;;;13.13;57.69;101209.49;1694719;84;21217;-59
2023/05/14 03:39:55;;;;;;;8.50;5.22;;;;;;;13.21;57.73;101214.13;1694608;84;21245;-59
2023/05/14 03:43:01;;;;;;;7.92;5.60;;;;;;;13.28;57.76;101217.91;1694695;84;21245;-57
2023/05/14 03:46:06;;;;;;;8.40;5.65;;;;;;;13.38;57.79;101214.48;1694447;84;21761;-57
2023/05/14 03:49:14;;;;;;;8.20;5.15;;;;;;;13.47;57.77;101224.42;1694674;84;21221;-57
2023/05/14 03:52:19;;;;;;;9.70;5.40;;;;;;;13.55;57.77;101220.29;1694893;84;21500;-58
2023/05/14 03:55:28;;;;;;;10.60;4.87;;;;;;;13.65;57.80;101214.09;1694773;84;21236;-58
2023/05/14 03:58:35;;;;;;;8.35;4.28;;;;;;;13.76;57.85;101223.86;1694643;84;21245;-58
2023/05/14 04:01:40;;;;;;;8.48;4.70;;;;;;;13.84;57.81;101226.09;1694680;84;21264;-57
2023/05/14 04:04:46;;;;;;;9.93;4.60;;;;;;;13.94;57.82;101220.37;1694577;84;21308;-58
2023/05/14 04:07:57;;;;;;;7.22;4.53;;;;;;;14.03;57.83;101222.05;1694588;84;21233;-59
2023/05/14 04:11:03;;;;;;;6.97;4.50;;;;;;;14.10;57.85;101215.66;1694730;84;21217;-59
2023/05/14 04:14:11;;;;;;;8.38;4.75;;;;;;;14.18;57.88;101215.62;1694727;84;21206;-57
2023/05/14 04:17:17;;;;;;;10.13;5.37;;;;;;;14.28;57.93;101214.06;1694716;84;21209;-58
2023/05/14 04:20:22;;;;;;;12.73;5.00;;;;;;;14.35;57.96;101218.66;1694813;84;21258;-58
2023/05/14 04:23:30;;;;;;;10.32;4.85;;;;;;;14.44;57.99;101209.34;1694381;84;21221;-58
2023/05/14 04:26:35;;;;;;;11.65;4.85;;;;;;;14.56;57.98;101209.77;1693681;83;21253;-58
2023/05/14 04:29:40;;;;;;;6.35;4.20;;;;;;;14.66;57.99;101214.03;1690155;84;21237;-58
2023/05/14 04:32:47;;;;;;;6.60;4.17;;;;;;;14.76;57.97;101212.41;1678210;85;21189;-58
2023/05/14 04:35:54;;;;;;;9.75;4.10;;;;;;;14.86;57.90;101217.14;1678380;85;21209;-57
2023/05/14 04:39:00;;;;;;;7.92;3.92;;;;;;;14.98;57.89;101215.70;1678427;85;21277;-57
2023/05/14 04:42:05;;;;;;;6.92;4.42;;;;;;;15.08;57.87;101210.77;1750441;81;21774;-57
2023/05/14 04:45:13;;;;;;;10.50;4.17;;;;;;;15.18;57.84;101216.91;1738860;80;21221;-58
2023/05/14 04:48:17;;;;;;;7.47;4.12;;;;;;;15.30;57.82;101215.95;1728341;82;21201;-57
2023/05/14 04:51:23;;;;;;;5.45;4.03;;;;;;;15.43;57.83;101206.55;1731687;82;21204;-53
2023/05/14 04:54:31;;;;;;;10.45;3.80;;;;;;;15.55;57.84;101203.14;1735558;81;21208;-53
2023/05/14 04:57:36;;;;;;;6.50;3.87;;;;;;;15.68;57.83;101206.09;1734346;82;21212;-53
2023/05/14 05:00:43;;;;;;;9.00;4.08;;;;;;;15.84;57.84;101208.67;1724721;82;21192;-52
2023/05/14 05:03:49;;;;;;;7.00;4.40;;;;;;;16.00;57.80;101200.20;1733840;81;21283;-54
2023/05/14 05:06:56;;;;;;;5.78;3.90;;;;;;;16.16;57.73;101198.63;1734226;81;21247;-53
2023/05/14 05:10:05;;;;;;;6.12;3.90;;;;;;;16.34;57.65;101203.75;1734359;82;21205;-54
2023/05/14 05:13:11;;;;;;;6.83;3.30;;;;;;;16.51;57.55;101198.91;1734036;82;21772;-53
2023/05/14 05:16:17;;;;;;;6.37;3.22;;;;;;;16.66;57.41;101203.34;1734281;82;21220;-53
2023/05/14 05:19:25;;;;;;;5.62;3.55;;;;;;;16.85;57.35;101195.79;1735064;81;21211;-53
2023/05/14 05:22:33;;;;;;;9.93;3.33;;;;;;;17.03;57.20;101200.87;1739258;82;21533;-54
2023/05/14 05:25:38;;;;;;;5.85;3.47;;;;;;;17.21;57.12;101193.80;1738747;82;21809;-53
2023/05/14 05:28:43;;;;;;;7.47;3.35;;;;;;;17.37;56.91;101189.89;1741123;81;21200;-53
2023/05/14 05:31:50;;;;;;;7.87;3.37;;;;;;;17.55;56.72;101199.44;1744012;82;21784;-53
2023/05/14 05:34:55;;;;;;;7.45;3.75;;;;;;;17.69;56.49;101194.86;1740691;82;21820;-55
2023/05/14 05:38:00;;;;;;;6.08;3.60;;;;;;;17.83;56.28;101203.07;1735917;82;21216;-55
2023/05/14 05:41:07;;;;;;;8.30;3.17;;;;;;;17.96;56.05;101200.05;1735455;82;21271;-54
2023/05/14 05:44:13;;;;;;;6.67;3.55;;;;;;;18.06;55.78;101195.83;1735960;82;21200;-53
2023/05/14 05:47:20;;;;;;;6.62;3.52;;;;;;;18.18;55.56;101192.83;1742849;81;21222;-54
2023/05/14 05:50:25;;;;;;;6.25;3.65;;;;;;;18.32;55.32;101197.89;1756110;80;21308;-55
2023/05/14 05:53:31;;;;;;;7.25;3.47;;;;;;;18.48;55.20;101191.50;1701252;84;21272;-54
2023/05/14 05:56:37;;;;;;;9.25;3.67;;;;;;;18.64;54.95;101188.37;1759576;80;21289;-54
2023/05/14 05:59:43;;;;;;;5.95;3.83;;;;;;;18.79;54.69;101194.58;1709017;82;21257;-54
2023/05/14 06:02:49;;;;;;;7.62;4.05;;;;;;;18.94;54.46;101192.50;1756693;81;21175;-54
2023/05/14 06:05:54;;;;;;;10.48;3.75;;;;;;;19.08;54.17;101190.06;1707090;83;21244;-55
2023/05/14 06:09:05;;;;;;;7.00;3.30;;;;;;;19.21;53.89;101188.70;1705240;83;21217;-54
2023/05/14 06:12:12;;;;;;;6.70;3.65;;;;;;;19.35;53.63;101178.47;1705660;82;21209;-56
2023/05/14 06:15:19;;;;;;;6.67;3.72;;;;;;;19.49;53.35;101176.56;1750026;80;21236;-54
2023/05/14 06:18:24;;;;;;;7.70;3.72;;;;;;;19.61;53.01;101174.83;1758402;81;21236;-53
2023/05/14 06:21:31;;;;;;;5.08;3.50;;;;;;;19.71;52.75;101170.53;1759144;81;21192;-53
2023/05/14 06:24:37;;;;;;;12.13;3.98;;;;;;;19.83;52.40;101162.40;1758662;81;21224;-56
2023/05/14 06:27:44;;;;;;;5.17;3.50;;;;;;;19.94;52.13;101170.94;1758729;81;21208;-56
2023/05/14 06:30:50;;;;;;;8.15;3.45;;;;;;;20.08;51.86;101177.30;1758741;81;21785;-57
2023/05/14 06:33:55;;;;;;;7.67;3.40;;;;;;;20.20;51.58;101180.60;1759218;81;21221;-54
2023/05/14 06:37:02;;;;;;;12.45;3.55;;;;;;;20.33;51.25;101170.83;1759174;80;21248;-55
2023/05/14 06:40:08;;;;;;;8.53;3.30;;;;;;;20.46;50.94;101162.96;1759418;81;21193;-56
2023/05/14 06:43:15;;;;;;;5.50;3.37;;;;;;;20.58;50.67;101163.98;1720852;81;21224;-53
2023/05/14 06:46:21;;;;;;;7.33;3.40;;;;;;;20.67;50.28;101158.47;1758948;81;21221;-55
2023/05/14 06:49:28;;;;;;;4.58;3.45;;;;;;;20.76;49.96;101168.26;1759534;81;21201;-56
2023/05/14 06:52:34;;;;;;;4.60;3.10;;;;;;;20.85;49.70;101155.80;1752633;81;21221;-57
2023/05/14 06:55:41;;;;;;;8.08;3.27;;;;;;;20.93;49.37;101149.11;1759189;81;21228;-56
2023/05/14 06:58:49;;;;;;;7.75;3.40;;;;;;;21.03;49.11;101157.83;1757987;80;21256;-54
2023/05/14 07:01:55;;;;;;;8.58;3.40;;;;;;;21.13;48.79;101158.20;1744234;81;21212;-57
2023/05/14 07:05:01;;;;;;;5.55;3.42;;;;;;;21.22;48.47;101159.09;1752645;81;21212;-56
2023/05/14 07:08:09;;;;;;;7.20;3.35;;;;;;;21.31;48.19;101154.09;1735172;82;21196;-53
2023/05/14 07:11:15;;;;;;;8.68;3.02;;;;;;;21.42;47.89;101154.19;1735142;82;21188;-56
2023/05/14 07:14:23;;;;;;;6.70;3.40;;;;;;;21.52;47.62;101155.94;1732338;81;21201;-54
2023/05/14 07:17:30;;;;;;;5.45;2.70;;;;;;;21.62;47.31;101145.66;1728930;82;21741;-55
2023/05/14 07:20:36;;;;;;;5.03;2.95;;;;;;;21.72;47.01;101148.78;1728818;82;21737;-56
2023/05/14 07:23:43;;;;;;;7.45;2.80;;;;;;;21.82;46.75;101155.56;1731016;81;21267;-55
2023/05/14 07:26:47;;;;;;;7.10;3.70;;;;;;;21.93;46.44;101143.64;1751075;81;21793;-56
2023/05/14 07:29:53;;;;;;;6.30;3.25;;;;;;;22.03;46.14;101149.55;1728321;81;21237;-57
2023/05/14 07:33:00;;;;;;;5.10;3.33;;;;;;;22.13;45.79;101140.64;1724894;82;21526;-56
2023/05/14 07:36:06;;;;;;;5.85;3.20;;;;;;;22.23;45.52;101151.25;1729647;82;21209;-55
2023/05/14 07:39:13;;;;;;;8.60;3.47;;;;;;;22.32;45.15;101144.26;1734863;81;21219;-56
2023/05/14 07:42:18;;;;;;;8.08;3.05;;;;;;;22.40;44.84;101136.97;1740479;81;21785;-56
2023/05/14 07:45:26;;;;;;;6.70;3.25;;;;;;;22.48;44.52;101127.74;1742690;81;21248;-56
2023/05/14 07:48:33;;;;;;;6.15;3.17;;;;;;;22.57;44.23;101132.47;1728525;82;21296;-54
2023/05/14 07:51:39;;;;;;;5.33;2.75;;;;;;;22.69;43.96;101130.59;1740581;81;21220;-56
2023/05/14 07:54:47;;;;;;;7.25;3.15;;;;;;;22.81;43.70;101138.45;1738887;81;21796;-54
2023/05/14 07:57:55;;;;;;;4.15;2.90;;;;;;;22.88;43.29;101127.48;1742651;81;21245;-56
2023/05/14 08:01:05;;;;;;;6.65;2.92;;;;;;;22.96;43.00;101122.13;1752357;81;21750;-56
2023/05/14 08:04:10;;;;;;;6.53;3.45;;;;;;;23.03;42.65;101123.72;1732506;81;21240;-56
2023/05/14 08:07:15;;;;;;;8.40;3.10;;;;;;;23.10;42.28;101128.64;1748356;80;21204;-56
2023/05/14 08:10:21;;;;;;;9.03;3.35;;;;;;;23.16;41.95;101122.66;1730519;81;21221;-55
2023/05/14 08:13:27;;;;;;;4.75;2.70;;;;;;;23.23;41.70;101124.23;1728276;82;21718;-55
2023/05/14 08:16:32;;;;;;;4.78;2.92;;;;;;;23.33;41.37;101125.94;1730141;81;21595;-55
2023/05/14 08:19:39;;;;;;;5.72;4.12;;;;;;;23.39;41.08;101119.91;1747227;81;21287;-55
2023/05/14 08:22:46;;;;;;;7.25;3.35;;;;;;;23.43;40.79;101125.34;1733735;82;21196;-56
2023/05/14 08:25:52;;;;;;;5.40;2.80;;;;;;;23.50;40.46;101114.87;1734067;81;21764;-56
2023/05/14 08:28:59;;;;;;;7.30;2.92;;;;;;;23.60;40.25;101119.33;1713709;82;21181;-56
2023/05/14 08:32:09;;;;;;;8.18;4.30;;;;;;;23.75;40.06;101106.26;1735797;80;21737;-55
2023/05/14 08:35:16;;;;;;;5.40;3.10;;;;;;;23.86;39.74;101104.86;1734520;81;21200;-54
2023/05/14 08:38:22;;;;;;;6.58;2.75;;;;;;;24.02;39.40;101110.27;1704514;81;21264;-56
2023/05/14 08:41:28;;;;;;;7.12;3.27;;;;;;;24.05;39.04;101105.05;1734953;81;21184;-54
2023/05/14 08:44:52;;;;;;;6.12;2.90;;;;;;;24.10;38.79;101098.13;1752843;81;21229;-54
2023/05/14 08:48:00;;;;;;;5.00;2.95;;;;;;;24.08;38.42;101084.96;1758552;81;21232;-54
2023/05/14 08:51:05;;;;;;;6.30;3.30;;;;;;;24.04;38.03;101078.71;1752327;81;21809;-56
2023/05/14 08:54:14;;;;;;;7.12;3.00;;;;;;;24.00;37.78;101082.55;1743592;81;21209;-55
2023/05/14 08:57:23;;;;;;;4.60;2.87;;;;;;;23.97;37.54;101083.58;1717741;81;21241;-55
2023/05/14 09:00:29;;;;;;;14.35;3.52;;;;;;;23.93;37.28;101084.58;1655512;85;21745;-57
2023/05/14 09:03:35;;;;;;;4.55;2.75;;;;;;;23.92;36.98;101070.84;1705547;83;22043;-56
2023/05/14 09:06:43;;;;;;;11.00;3.58;;;;;;;23.94;36.70;101081.24;1706484;84;21209;-55
2023/05/14 09:09:49;;;;;;;21.55;5.87;;;;;;;23.95;36.43;101067.01;1708573;83;21273;-54
2023/05/14 09:12:55;;;;;;;16.75;4.92;;;;;;;24.01;36.19;101070.78;1673163;84;21260;-55
2023/05/14 09:16:01;;;;;;;45.88;10.35;;;;;;;24.12;35.95;101055.94;1710017;82;21217;-55
2023/05/14 09:19:08;;;;;;;7.53;3.72;;;;;;;24.41;35.92;101057.09;1755898;81;21213;-57
2023/05/14 09:22:21;;;;;;;9.13;4.03;;;;;;;24.80;35.78;101047.78;1761260;81;21742;-57
2023/05/14 09:25:26;;;;;;;21.33;5.75;;;;;;;25.13;35.54;101045.58;1743413;81;21217;-56
2023/05/14 09:28:32;;;;;;;7.12;3.10;;;;;;;25.33;35.16;101057.65;1752014;81;21190;-57
2023/05/14 09:31:40;;;;;;;14.28;4.90;;;;;;;25.34;34.75;101053.80;1750440;79;21236;-53
2023/05/14 09:34:46;;;;;;;11.97;3.77;;;;;;;25.15;34.39;101044.74;1755286;81;21198;-55
2023/05/14 09:37:53;;;;;;;5.30;2.60;;;;;;;24.96;34.06;101049.76;1741649;81;21297;-56
2023/05/14 09:40:59;;;;;;;6.97;2.20;;;;;;;24.78;33.81;101037.95;1755782;81;21185;-56
2023/05/14 09:44:04;;;;;;;7.50;2.92;;;;;;;24.68;33.58;101036.36;1755544;81;21205;-56
2023/05/14 09:47:09;;;;;;;4.35;2.35;;;;;;;24.69;33.42;101034.70;1756494;81;21869;-56
2023/05/14 09:50:17;;;;;;;9.80;2.85;;;;;;;24.88;33.30;101030.56;1750330;81;21377;-56
2023/05/14 09:53:24;;;;;;;13.05;2.80;;;;;;;25.05;32.99;101030.01;1735095;81;21240;-57
2023/05/14 09:56:33;;;;;;;4.53;2.40;;;;;;;25.18;32.79;101026.59;1751515;81;21208;-56
2023/05/14 09:59:40;;;;;;;7.12;2.50;;;;;;;25.37;32.65;101023.84;1734000;82;21207;-54
2023/05/14 10:02:47;;;;;;;3.83;2.22;;;;;;;25.40;32.27;101034.53;1733909;82;21709;-58
2023/05/14 10:05:54;;;;;;;6.83;2.77;;;;;;;25.45;32.08;101025.62;1734335;81;21235;-55
2023/05/14 10:09:06;;;;;;;3.98;2.00;;;;;;;25.70;31.94;101027.97;1734615;82;21220;-55
2023/05/14 10:12:12;;;;;;;7.35;2.35;;;;;;;25.89;31.66;101030.76;1734522;82;21256;-59
2023/05/14 10:15:22;;;;;;;4.40;2.10;;;;;;;26.07;31.37;101023.43;1734341;82;21291;-59
2023/05/14 10:18:30;;;;;;;3.15;2.30;;;;;;;26.27;31.15;101013.87;1734395;82;21173;-58
2023/05/14 10:21:36;;;;;;;6.95;3.15;;;;;;;26.42;30.82;101022.45;1751614;81;21527;-57
2023/05/14 10:24:41;;;;;;;6.08;2.67;;;;;;;26.68;30.67;101024.45;1742233;81;21750;-57
2023/05/14 10:27:47;;;;;;;6.25;3.37;;;;;;;26.94;30.46;101024.96;1743413;81;21171;-58
2023/05/14 10:30:52;;;;;;;4.83;3.50;;;;;;;27.02;30.16;101018.84;1756048;81;21272;-58
2023/05/14 10:34:00;;;;;;;8.93;3.70;;;;;;;27.11;29.94;101017.27;1755957;81;21209;-57
2023/05/14 10:37:09;;;;;;;5.80;3.10;;;;;;;27.22;29.68;101019.03;1756067;81;21213;-57
2023/05/14 10:40:17;;;;;;;7.20;3.42;;;;;;;27.28;29.48;101013.77;1730174;81;21220;-58
2023/05/14 10:43:25;;;;;;;4.25;2.95;;;;;;;27.40;29.30;101014.98;1753777;81;21590;-57
2023/05/14 10:46:31;;;;;;;8.55;3.10;;;;;;;27.50;29.15;101007.44;1735107;81;21579;-58
2023/05/14 10:49:37;;;;;;;6.65;3.10;;;;;;;27.65;29.04;101007.52;1757763;80;21317;-57
2023/05/14 10:52:43;;;;;;;7.15;3.15;;;;;;;27.70;28.90;101003.91;1755206;81;21198;-58
2023/05/14 10:55:50;;;;;;;8.25;3.20;;;;;;;27.71;28.79;101002.22;1757603;81;21715;-58
2023/05/14 10:58:57;;;;;;;4.78;2.70;;;;;;;27.74;28.68;101001.67;1745787;80;21217;-57
2023/05/14 11:02:07;;;;;;;10.40;5.85;;;;;;;27.68;28.41;100998.55;1716552;80;21193;-55
2023/05/14 11:05:19;;;;;;;9.20;3.92;;;;;;;27.53;28.27;101004.62;1732173;82;21781;-56
2023/05/14 11:08:23;;;;;;;7.17;4.15;;;;;;;27.61;28.20;101002.16;1734255;81;21595;-55
2023/05/14 11:11:30;;;;;;;5.45;3.17;;;;;;;27.78;28.14;100995.77;1759232;80;21173;-56
2023/05/14 11:14:35;;;;;;;6.97;2.90;;;;;;;28.00;28.11;100996.19;1761373;81;21197;-55
2023/05/14 11:17:40;;;;;;;6.87;3.00;;;;;;;28.14;27.93;100992.59;1758132;81;21644;-55
2023/05/14 11:20:46;;;;;;;6.05;2.98;;;;;;;28.34;27.85;100997.41;1743204;80;21176;-54
2023/05/14 11:23:56;;;;;;;5.12;2.62;;;;;;;28.46;27.61;100993.80;1739087;81;21282;-56
2023/05/14 11:27:01;;;;;;;5.95;2.95;;;;;;;28.64;27.61;101008.23;1743283;82;21201;-57
2023/05/14 11:30:06;;;;;;;5.87;2.33;;;;;;;28.57;27.23;101013.30;1721461;82;21299;-56
2023/05/14 11:33:11;;;;;;;7.60;2.52;;;;;;;28.10;26.86;101004.69;1743832;81;21196;-55
2023/05/14 11:36:18;;;;;;;8.35;2.95;;;;;;;27.61;26.69;101002.16;1705506;83;21213;-56
2023/05/14 11:39:26;;;;;;;4.78;2.52;;;;;;;27.15;26.57;101002.08;1671635;85;21341;-56
2023/05/14 11:42:34;;;;;;;7.62;2.35;;;;;;;26.77;26.56;101004.58;1666420;86;21734;-55
2023/05/14 11:45:42;;;;;;;7.65;3.02;;;;;;;26.41;26.48;100997.75;1682768;84;21276;-56
2023/05/14 11:48:48;;;;;;;6.08;2.90;;;;;;;26.18;26.54;100999.44;1752399;81;21221;-55
2023/05/14 11:51:54;;;;;;;7.28;3.20;;;;;;;26.07;26.63;101006.05;1729476;82;21288;-56
2023/05/14 11:55:00;;;;;;;11.50;5.17;;;;;;;25.95;26.55;101000.25;1733914;81;21777;-55
2023/05/14 11:58:05;;;;;;;31.90;15.95;;;;;;;25.81;26.58;100998.41;1733999;82;21495;-54
2023/05/14 12:01:11;;;;;;;18.05;8.35;;;;;;;25.73;26.62;101003.06;1721241;82;21334;-55
2023/05/14 12:04:22;;;;;;;14.47;4.90;;;;;;;25.71;26.72;101003.86;1735315;82;21721;-54
2023/05/14 12:07:29;;;;;;;6.87;3.20;;;;;;;25.70;26.75;100997.12;1753809;81;21185;-55
2023/05/14 12:10:35;;;;;;;5.97;2.62;;;;;;;25.71;26.82;100998.80;1753743;81;21777;-54
2023/05/14 12:13:42;;;;;;;5.55;2.90;;;;;;;25.70;26.86;101002.72;1759912;80;21236;-56
2023/05/14 12:16:50;;;;;;;8.58;3.33;;;;;;;25.69;26.94;100994.03;1741957;81;21220;-55
2023/05/14 12:19:56;;;;;;;5.65;2.52;;;;;;;25.76;27.12;100985.70;1728861;82;21240;-55
2023/05/14 12:23:02;;;;;;;6.50;2.80;;;;;;;26.02;27.27;100982.70;1728805;82;21201;-54
2023/05/14 12:26:15;;;;;;;7.35;2.80;;;;;;;26.15;27.29;100969.63;1726499;83;21335;-55
2023/05/14 12:29:20;;;;;;;;;;;;;;;26.12;27.27;100970.16;1760797;81;21629;-54
2023/05/14 12:32:26;;;;;;;11.83;2.90;;;;;;;26.07;27.28;100965.89;1758896;81;20208;-54
2023/05/14 12:35:31;;;;;;;4.55;2.40;;;;;;;26.05;27.31;100970.36;1728618;80;21224;-54
2023/05/14 12:38:39;;;;;;;9.13;2.62;;;;;;;26.11;27.37;100971.28;1728834;82;21729;-56
2023/05/14 12:41:45;;;;;;;7.72;3.65;;;;;;;26.25;27.36;100967.81;1710116;83;21197;-54
2023/05/14 12:44:51;;;;;;;5.83;2.80;;;;;;;26.30;27.41;100972.08;1738360;81;21339;-54
2023/05/14 12:47:57;;;;;;;5.95;2.42;;;;;;;26.41;27.39;100966.00;1735606;82;21753;-56
2023/05/14 12:51:02;;;;;;;17.48;10.13;;;;;;;26.49;27.32;100962.71;1735465;82;21232;-54
2023/05/14 12:54:10;;;;;;;10.50;3.75;;;;;;;26.51;27.28;100974.53;1748192;81;21233;-54
2023/05/14 12:57:16;;;;;;;6.10;2.75;;;;;;;26.50;27.19;100974.23;1759182;81;21196;-54
2023/05/14 13:00:22;;;;;;;3.72;2.40;;;;;;;26.47;27.09;100966.33;1759017;81;21162;-55
2023/05/14 13:03:28;;;;;;;5.55;2.52;;;;;;;26.45;26.98;100966.60;1758959;81;21733;-56
2023/05/14 13:06:35;;;;;;;5.55;2.10;;;;;;;26.36;26.81;100972.97;1758984;81;21165;-55
2023/05/14 13:09:44;;;;;;;5.53;2.42;;;;;;;26.23;26.74;100972.83;1759573;81;21228;-54
2023/05/14 13:12:51;;;;;;;5.22;2.58;;;;;;;26.21;26.71;100976.45;1759143;81;21359;-54
2023/05/14 13:15:57;;;;;;;4.78;2.20;;;;;;;26.22;26.60;100978.16;1758642;81;21193;-55
2023/05/14 13:19:04;;;;;;;5.97;2.55;;;;;;;26.19;26.41;100970.82;1758133;81;21245;-54
2023/05/14 13:22:10;;;;;;;3.35;2.10;;;;;;;26.16;26.33;100968.55;1758304;81;21217;-56
2023/05/14 13:25:16;;;;;;;10.30;2.20;;;;;;;26.08;26.19;100970.41;1746938;81;21244;-54
2023/05/14 13:28:23;;;;;;;4.40;2.00;;;;;;;25.97;26.09;100979.22;1747440;81;21216;-54
2023/05/14 13:31:27;;;;;;;7.97;2.15;;;;;;;26.07;26.13;100977.98;1708081;84;21249;-54
2023/05/14 13:34:35;;;;;;;3.70;2.10;;;;;;;26.36;26.07;100983.65;1689669;84;21770;-55
2023/05/14 13:37:40;;;;;;;7.78;2.67;;;;;;;26.56;26.05;100989.19;1705469;82;21253;-54
2023/05/14 13:40:45;;;;;;;4.12;2.75;;;;;;;26.73;26.07;101000.63;1707869;84;21592;-55
2023/05/14 13:43:51;;;;;;;5.12;2.62;;;;;;;26.86;26.02;100999.33;1707851;82;21254;-53
2023/05/14 13:46:57;;;;;;;5.00;2.67;;;;;;;27.03;25.88;100995.81;1708293;84;21222;-56
2023/05/14 13:50:05;;;;;;;6.42;2.12;;;;;;;27.19;25.79;101007.47;1707933;84;21744;-54
2023/05/14 13:53:10;;;;;;;12.50;3.22;;;;;;;27.31;25.75;101001.97;1707015;82;21235;-55
2023/05/14 13:56:18;;;;;;;8.10;2.20;;;;;;;27.35;25.68;100994.67;1707038;84;21735;-55
2023/05/14 13:59:25;;;;;;;4.95;2.50;;;;;;;27.70;25.74;100990.66;1707346;82;21775;-55
2023/05/14 14:02:30;;;;;;;5.05;2.10;;;;;;;27.82;25.71;100985.67;1693751;83;21225;-55
2023/05/14 14:05:36;;;;;;;6.50;2.58;;;;;;;27.66;25.78;100991.48;1708380;82;21213;-57
2023/05/14 14:08:43;;;;;;;5.35;2.55;;;;;;;27.45;25.80;100984.90;1707543;82;21229;-55
2023/05/14 14:11:48;;;;;;;3.90;2.47;;;;;;;27.29;25.83;100981.70;1708027;83;21301;-55
2023/05/14 14:14:57;;;;;;;4.33;1.85;;;;;;;27.22;25.92;100978.27;1705539;83;21802;-55
2023/05/14 14:18:03;;;;;;;4.00;2.20;;;;;;;27.26;26.00;100975.22;1707571;82;21252;-56
2023/05/14 14:21:09;;;;;;;9.13;2.60;;;;;;;27.49;26.07;100974.81;1708153;82;22069;-55
2023/05/14 14:24:16;;;;;;;5.40;1.95;;;;;;;28.04;26.07;100977.61;1707990;83;21888;-57
2023/05/14 14:27:23;;;;;;;5.90;2.30;;;;;;;28.26;25.88;100972.64;1693387;84;21206;-56